createdAt,value
2019-02-26T00:04:14.849Z,76.23
2019-02-26T00:06:47.190Z,75.84
2019-02-26T00:09:18.165Z,75.76
2019-02-26T00:11:44.355Z,76.09
2019-02-26T00:14:15.521Z,76.47
2019-02-26T00:19:17.234Z,77.48
2019-02-26T00:21:48.058Z,77.97
2019-02-26T00:24:16.830Z,78.46
2019-02-26T00:26:46.847Z,78.90
2019-02-26T00:29:15.530Z,78.92
2019-02-26T00:31:46.133Z,78.77
2019-02-26T00:34:16.884Z,78.31
2019-02-26T00:36:45.197Z,78.24
2019-02-26T00:39:13.884Z,78.16
2019-02-26T00:41:42.531Z,77.91
2019-02-26T00:44:32.207Z,77.63
2019-02-26T00:47:02.708Z,77.92
2019-02-26T00:49:31.171Z,77.80
2019-02-26T00:51:59.859Z,77.75
2019-02-26T00:54:29.224Z,77.92
2019-02-26T00:57:01.091Z,78.19
2019-02-26T00:59:29.366Z,78.50
2019-02-26T01:01:59.370Z,78.54
2019-02-26T01:04:28.575Z,78.62
2019-02-26T01:06:59.046Z,78.87
2019-02-26T01:09:29.466Z,78.99
2019-02-26T01:11:58.430Z,79.30
2019-02-26T01:14:27.114Z,79.13
2019-02-26T01:16:55.800Z,79.12
2019-02-26T01:19:24.448Z,79.51
2019-02-26T01:21:53.246Z,79.77
2019-02-26T01:24:24.333Z,80.02
2019-02-26T01:26:52.393Z,79.87
2019-02-26T01:30:03.296Z,80.19
2019-02-26T01:32:31.254Z,79.98
2019-02-26T01:35:00.953Z,80.14
2019-02-26T01:37:32.046Z,79.71
2019-02-26T01:40:00.558Z,79.16
2019-02-26T01:42:31.238Z,79.65
2019-02-26T01:44:59.707Z,80.20
2019-02-26T01:47:48.324Z,80.42
2019-02-26T01:50:18.033Z,80.83
2019-02-26T01:52:46.713Z,80.73
2019-02-26T01:55:16.176Z,80.79
2019-02-26T01:57:45.787Z,80.91
2019-02-26T02:00:55.591Z,81.34
2019-02-26T02:03:25.521Z,81.76
2019-02-26T02:05:54.955Z,82.28
2019-02-26T02:11:11.378Z,81.99
2019-02-26T02:14:01.906Z,82.05
2019-02-26T02:16:31.461Z,82.30
2019-02-26T02:19:00.136Z,82.73
2019-02-26T03:16:05.923Z,83.61
2019-02-26T03:18:34.676Z,83.98
2019-02-26T03:21:04.803Z,84.36
2019-02-26T03:23:36.889Z,84.58
2019-02-26T03:28:59.546Z,84.92
2019-02-26T03:31:31.001Z,85.51
2019-02-26T03:34:04.104Z,85.81
2019-02-26T03:36:31.392Z,85.16
2019-02-26T03:39:00.791Z,84.89
2019-02-26T03:42:10.659Z,85.33
2019-02-26T03:44:39.965Z,85.44
2019-02-26T03:47:08.662Z,85.45
2019-02-26T03:49:41.714Z,85.35
2019-02-26T03:52:07.801Z,84.12
2019-02-26T03:54:37.856Z,83.59
2019-02-26T03:57:06.855Z,83.79
2019-02-26T03:59:35.561Z,84.53
2019-02-26T04:02:04.255Z,85.18
2019-02-26T04:04:33.725Z,85.99
2019-02-26T04:07:04.937Z,86.26
2019-02-26T04:09:33.731Z,86.89
2019-02-26T04:12:02.422Z,87.56
2019-02-26T04:14:31.133Z,87.02
2019-02-26T04:17:01.649Z,86.98
2019-02-26T04:19:30.291Z,86.83
2019-02-26T04:22:42.263Z,86.63
2019-02-26T04:25:49.497Z,86.15
2019-02-26T04:28:58.173Z,86.39
2019-02-26T04:32:06.718Z,86.40
2019-02-26T04:34:59.175Z,86.84
2019-02-26T04:38:06.177Z,85.56
2019-02-26T04:41:15.921Z,86.07
2019-02-26T04:44:26.833Z,86.59
2019-02-26T04:47:34.472Z,87.13
2019-02-26T04:50:06.198Z,87.33
2019-02-26T04:52:35.780Z,87.39
2019-02-26T04:58:14.811Z,86.68
2019-02-26T05:00:42.561Z,87.15
2019-02-26T05:03:14.198Z,87.81
2019-02-26T05:05:41.728Z,87.97
2019-02-26T05:08:12.320Z,87.78
2019-02-26T05:10:40.788Z,87.99
2019-02-26T05:13:09.842Z,88.28
2019-02-26T05:15:39.741Z,87.30
2019-02-26T05:18:08.332Z,86.00
2019-02-26T05:20:39.272Z,86.72
2019-02-26T05:23:07.342Z,87.25
2019-02-26T05:25:37.372Z,87.69
2019-02-26T05:28:09.335Z,88.49
2019-02-26T05:30:37.808Z,88.72
2019-02-26T05:33:07.178Z,88.73
2019-02-26T05:35:37.851Z,88.10
2019-02-26T05:38:07.699Z,86.70
2019-02-26T05:40:37.806Z,86.27
2019-02-26T05:43:07.082Z,86.70
2019-02-26T05:45:35.775Z,87.88
2019-02-26T05:48:05.202Z,88.38
2019-02-26T05:50:35.541Z,88.67
2019-02-26T05:53:07.070Z,89.01
2019-02-26T05:55:35.066Z,89.19
2019-02-26T05:58:03.810Z,89.71
2019-02-26T06:00:33.416Z,89.50
2019-02-26T06:03:03.591Z,89.40
2019-02-26T06:05:32.610Z,89.59
2019-02-26T06:08:20.449Z,88.56
2019-02-26T06:10:49.104Z,88.74
2019-02-26T06:13:58.919Z,88.75
2019-02-26T06:16:28.963Z,88.27
2019-02-26T06:18:58.498Z,88.56
2019-02-26T06:21:27.181Z,89.12
2019-02-26T06:24:36.270Z,89.16
2019-02-26T06:27:08.611Z,89.46
2019-02-26T06:29:37.426Z,89.74
2019-02-26T06:32:29.918Z,89.68
2019-02-26T06:34:56.500Z,89.59
2019-02-26T06:37:25.186Z,89.22
2019-02-26T06:42:30.683Z,86.61
2019-02-26T06:44:58.970Z,86.64
2019-02-26T06:47:29.289Z,86.90
2019-02-26T06:49:57.985Z,87.21
2019-02-26T06:52:47.845Z,87.72
2019-02-26T06:55:16.303Z,88.50
2019-02-26T06:58:24.722Z,89.10
2019-02-26T07:00:55.451Z,89.11
2019-02-26T07:03:24.748Z,88.82
2019-02-26T07:05:54.403Z,87.88
2019-02-26T07:08:24.238Z,87.15
2019-02-26T07:10:53.545Z,86.29
2019-02-26T07:13:22.212Z,85.29
2019-02-26T07:16:10.156Z,84.28
2019-02-26T07:18:38.790Z,83.39
2019-02-26T07:21:07.430Z,82.71
2019-02-26T07:23:38.209Z,82.66
2019-02-26T07:26:06.544Z,82.20
2019-02-26T07:29:17.552Z,82.02
2019-02-26T07:31:47.227Z,82.14
2019-02-26T07:34:18.142Z,81.21
2019-02-26T07:36:47.952Z,79.69
2019-02-26T07:39:18.260Z,77.67
2019-02-26T07:41:49.226Z,75.21
2019-02-26T07:44:18.631Z,73.10
2019-02-26T07:46:48.031Z,72.09
2019-02-26T07:49:16.811Z,71.98
2019-02-26T07:51:45.394Z,72.02
2019-02-26T07:54:14.109Z,71.40
2019-02-26T07:56:42.728Z,70.47
2019-02-26T07:59:12.575Z,70.06
2019-02-26T08:01:42.959Z,68.85
2019-02-26T08:04:13.501Z,67.20
2019-02-26T08:06:42.804Z,65.63
2019-02-26T08:09:14.001Z,64.32
2019-02-26T08:11:43.798Z,63.25
2019-02-26T08:14:14.357Z,61.67
2019-02-26T08:16:42.778Z,60.61
2019-02-26T08:19:30.681Z,57.31
2019-02-26T08:21:59.390Z,55.65
2019-02-26T08:24:48.582Z,56.82
2019-02-26T08:27:17.642Z,57.66
2019-02-26T08:29:46.281Z,58.99
2019-02-26T08:32:18.164Z,59.57
2019-02-26T08:35:04.611Z,60.68
2019-02-26T08:37:33.282Z,60.87
2019-02-26T08:40:01.965Z,61.34
2019-02-26T08:42:30.565Z,60.91
2019-02-26T08:44:59.273Z,59.98
2019-02-26T08:47:27.945Z,59.72
2019-02-26T08:49:58.820Z,60.73
2019-02-26T08:52:29.279Z,60.81
2019-02-26T08:54:57.479Z,61.31
2019-02-26T08:57:26.136Z,60.64
2019-02-26T08:59:54.835Z,60.82
2019-02-26T09:02:23.529Z,58.95
2019-02-26T09:04:52.184Z,59.36
2019-02-26T09:07:21.853Z,60.88
2019-02-26T09:09:54.338Z,61.07
2019-02-26T09:12:22.411Z,59.52
2019-02-26T09:14:52.068Z,59.56
2019-02-26T09:17:42.053Z,59.61
2019-02-26T09:20:50.146Z,59.00
2019-02-26T09:23:20.977Z,58.64
2019-02-26T09:25:54.087Z,58.70
2019-02-26T09:28:20.069Z,56.94
2019-02-26T09:31:11.521Z,56.85
2019-02-26T09:33:40.925Z,56.56
2019-02-26T09:36:12.657Z,55.65
2019-02-26T09:38:41.954Z,55.67
2019-02-26T09:41:11.774Z,54.71
2019-02-26T09:43:43.178Z,54.24
2019-02-26T09:46:31.761Z,54.79
2019-02-26T09:49:03.139Z,52.93
2019-02-26T09:51:32.987Z,53.56
2019-02-26T09:54:02.259Z,52.81
2019-02-26T09:56:30.955Z,51.08
2019-02-26T09:58:59.651Z,50.88
2019-02-26T10:01:30.169Z,50.46
2019-02-26T10:04:00.843Z,49.28
2019-02-26T10:06:29.307Z,49.45
2019-02-26T10:08:57.931Z,49.27
2019-02-26T10:11:27.996Z,48.74
2019-02-26T10:13:57.083Z,48.44
2019-02-26T10:16:28.114Z,49.29
2019-02-26T10:18:56.862Z,48.23
2019-02-26T10:21:26.732Z,48.46
2019-02-26T10:23:56.906Z,47.82
2019-02-26T10:26:26.410Z,49.17
2019-02-26T10:29:02.330Z,48.01
2019-02-26T10:31:27.594Z,46.42
2019-02-26T10:33:57.005Z,46.17
2019-02-26T10:36:25.654Z,45.92
2019-02-26T10:38:55.096Z,44.59
2019-02-26T10:41:24.669Z,44.23
2019-02-26T10:43:53.423Z,43.58
2019-02-26T10:46:42.601Z,42.71
2019-02-26T10:49:12.456Z,43.75
2019-02-26T10:51:42.672Z,41.16
2019-02-26T10:54:17.653Z,41.06
2019-02-26T10:56:44.883Z,40.52
2019-02-26T10:59:15.806Z,39.37
2019-02-26T11:02:25.816Z,39.17
2019-02-26T11:04:55.508Z,38.65
2019-02-26T11:07:26.432Z,37.78
2019-02-26T11:09:56.248Z,37.25
2019-02-26T11:12:27.917Z,37.53
2019-02-26T11:14:56.722Z,35.95
2019-02-26T11:17:46.247Z,35.61
2019-02-26T11:20:58.424Z,34.42
2019-02-26T11:23:30.999Z,35.24
2019-02-26T11:25:56.658Z,34.05
2019-02-26T11:28:29.767Z,33.51
2019-02-26T11:30:56.685Z,33.80
2019-02-26T11:33:45.411Z,33.37
2019-02-26T11:36:15.735Z,32.93
2019-02-26T11:38:46.923Z,31.77
2019-02-26T11:41:15.131Z,31.70
2019-02-26T11:46:54.322Z,30.82
2019-02-26T11:49:22.487Z,32.82
2019-02-26T11:51:51.163Z,31.45
2019-02-26T11:54:19.800Z,33.36
2019-02-26T11:56:49.796Z,32.88
2019-02-26T11:59:19.489Z,32.72
2019-02-26T12:01:49.407Z,31.33
2019-02-26T12:04:18.052Z,30.89
2019-02-26T12:07:07.502Z,29.64
2019-02-26T12:09:40.300Z,29.64
2019-02-26T12:12:09.206Z,31.99
2019-02-26T12:14:40.060Z,29.99
2019-02-26T12:17:07.813Z,29.94
2019-02-26T12:20:17.689Z,28.28
2019-02-26T12:22:48.001Z,27.14
2019-02-26T12:25:59.307Z,27.78
2019-02-26T12:28:28.305Z,27.76
2019-02-26T12:30:58.615Z,27.11
2019-02-26T12:33:32.183Z,26.99
2019-02-26T12:35:59.534Z,27.54
2019-02-26T12:38:29.502Z,27.82
2019-02-26T12:40:58.234Z,26.10
2019-02-26T12:43:26.948Z,27.24
2019-02-26T12:45:58.830Z,26.18
2019-02-26T12:48:26.018Z,24.90
2019-02-26T12:50:55.578Z,25.71
2019-02-26T12:53:25.100Z,26.33
2019-02-26T12:55:54.730Z,25.97
2019-02-26T12:58:27.579Z,25.14
2019-02-26T13:00:54.669Z,25.57
2019-02-26T13:03:23.412Z,25.96
2019-02-26T13:05:52.060Z,25.01
2019-02-26T13:08:24.129Z,25.23
2019-02-26T13:10:55.585Z,26.36
2019-02-26T13:13:21.583Z,26.34
2019-02-26T13:15:51.046Z,25.12
2019-02-26T13:21:11.048Z,23.91
2019-02-26T13:23:38.754Z,24.30
2019-02-26T13:29:02.645Z,24.26
2019-02-26T13:31:35.730Z,25.10
2019-02-26T13:34:01.868Z,25.39
2019-02-26T13:36:30.576Z,25.77
2019-02-26T13:38:59.250Z,27.46
2019-02-26T13:41:30.339Z,27.19
2019-02-26T13:43:58.338Z,25.85
2019-02-26T13:47:06.822Z,27.30
2019-02-26T13:49:35.500Z,26.40
2019-02-26T13:52:04.224Z,27.90
2019-02-26T13:54:32.936Z,27.04
2019-02-26T13:57:20.813Z,26.61
2019-02-26T13:59:51.176Z,26.28
2019-02-26T14:02:19.855Z,26.77
2019-02-26T14:04:48.563Z,27.97
2019-02-26T14:07:17.270Z,27.30
2019-02-26T14:09:45.963Z,27.61
2019-02-26T14:12:16.396Z,28.08
2019-02-26T14:14:45.097Z,27.58
2019-02-26T14:17:32.938Z,28.49
2019-02-26T14:20:01.631Z,27.65
2019-02-26T14:22:30.285Z,28.75
2019-02-26T14:24:58.939Z,28.39
2019-02-26T14:27:27.702Z,28.56
2019-02-26T14:29:56.358Z,29.88
2019-02-26T14:32:26.797Z,30.66
2019-02-26T14:34:55.364Z,31.04
2019-02-26T14:37:24.010Z,31.66
2019-02-26T14:39:52.772Z,32.10
2019-02-26T14:42:21.756Z,31.35
2019-02-26T14:44:51.915Z,31.29
2019-02-26T14:50:48.066Z,32.09
2019-02-26T14:53:16.767Z,31.98
2019-02-26T14:55:45.405Z,32.17
2019-02-26T14:58:14.087Z,32.69
2019-02-26T15:00:42.821Z,33.16
2019-02-26T15:03:11.516Z,33.40
2019-02-26T15:05:40.284Z,33.75
2019-02-26T15:08:09.645Z,34.16
2019-02-26T15:10:39.425Z,34.43
2019-02-26T15:13:08.167Z,34.00
2019-02-26T15:15:36.953Z,34.59
2019-02-26T15:18:05.609Z,34.29
2019-02-26T15:20:34.252Z,34.02
2019-02-26T15:25:40.339Z,33.48
2019-02-26T15:28:09.053Z,33.53
2019-02-26T15:30:37.749Z,34.38
2019-02-26T15:33:10.957Z,34.50
2019-02-26T15:35:36.822Z,34.40
2019-02-26T15:38:05.551Z,34.38
2019-02-26T15:40:34.253Z,34.82
2019-02-26T15:43:02.963Z,35.50
2019-02-26T15:45:33.460Z,35.41
2019-02-26T15:48:04.000Z,35.76
2019-02-26T15:50:32.529Z,36.07
2019-02-26T15:53:01.279Z,36.29
2019-02-26T15:56:09.810Z,36.42
2019-02-26T15:58:38.494Z,36.55
2019-02-26T16:01:46.961Z,36.69
2019-02-26T16:04:15.743Z,36.61
2019-02-26T16:06:44.461Z,36.51
2019-02-26T16:09:15.471Z,36.79
2019-02-26T16:11:45.255Z,37.04
2019-02-26T16:14:14.005Z,37.24
2019-02-26T16:16:42.670Z,37.20
2019-02-26T16:19:11.373Z,37.18
2019-02-26T16:21:59.309Z,37.76
2019-02-26T16:24:47.238Z,38.44
2019-02-26T16:27:19.784Z,38.63
2019-02-26T16:29:48.138Z,39.55
2019-02-26T16:32:16.871Z,40.57
2019-02-26T16:37:52.563Z,40.91
2019-02-26T16:43:00.475Z,41.95
2019-02-26T16:45:36.532Z,43.03
2019-02-26T16:48:05.366Z,43.26
2019-02-26T16:50:34.053Z,43.94
2019-02-26T16:53:02.826Z,44.29
2019-02-26T16:55:33.389Z,44.40
2019-02-26T16:58:03.221Z,45.12
2019-02-26T17:01:12.230Z,45.70
2019-02-26T17:03:40.946Z,46.25
2019-02-26T17:06:09.842Z,46.96
2019-02-26T17:11:14.566Z,48.74
2019-02-26T17:13:44.124Z,48.79
2019-02-26T17:16:13.691Z,49.49
2019-02-26T17:18:42.803Z,50.09
2019-02-26T17:21:12.798Z,50.91
2019-02-26T17:23:41.587Z,51.48
2019-02-26T17:26:10.296Z,51.53
2019-02-26T17:28:39.105Z,52.11
2019-02-26T17:31:47.702Z,52.73
2019-02-26T17:34:20.060Z,52.70
2019-02-26T17:36:46.983Z,53.10
2019-02-26T17:39:15.694Z,53.96
2019-02-26T17:41:44.829Z,54.28
2019-02-26T17:44:14.860Z,53.99
2019-02-26T17:46:43.574Z,54.71
2019-02-26T17:49:12.369Z,54.90
2019-02-26T17:51:40.979Z,55.05
2019-02-26T17:54:09.683Z,55.22
2019-02-26T17:56:38.247Z,55.46
2019-02-26T17:59:07.046Z,55.76
2019-02-26T18:01:35.794Z,56.17
2019-02-26T18:04:04.522Z,56.69
2019-02-26T18:06:33.164Z,57.37
2019-02-26T18:09:02.037Z,57.65
2019-02-26T18:11:30.718Z,58.02
2019-02-26T18:14:00.206Z,58.15
2019-02-26T18:16:31.711Z,58.66
2019-02-26T18:19:00.407Z,58.57
2019-02-26T18:21:29.137Z,58.80
2019-02-26T18:23:57.797Z,59.42
2019-02-26T18:26:45.613Z,59.76
2019-02-26T18:29:14.315Z,59.44
2019-02-26T18:31:43.021Z,59.76
2019-02-26T18:36:46.001Z,60.34
2019-02-26T18:39:35.256Z,60.27
2019-02-26T18:42:07.621Z,60.89
2019-02-26T18:44:34.343Z,61.33
2019-02-26T18:47:04.821Z,61.11
2019-02-26T18:49:33.546Z,61.10
2019-02-26T18:52:02.255Z,61.69
2019-02-26T18:54:30.945Z,61.88
2019-02-26T18:56:59.676Z,61.65
2019-02-26T19:02:03.566Z,62.07
2019-02-26T19:04:33.242Z,62.74
2019-02-26T19:07:02.061Z,63.45
2019-02-26T19:09:30.716Z,63.75
2019-02-26T19:14:47.082Z,62.97
2019-02-26T19:17:15.730Z,62.85
2019-02-26T19:20:03.667Z,61.93
2019-02-26T19:22:32.451Z,63.00
2019-02-26T19:25:20.416Z,64.06
2019-02-26T19:27:52.796Z,63.16
2019-02-26T19:36:36.735Z,62.97
2019-02-26T19:39:45.279Z,64.16
2019-02-26T19:45:43.877Z,64.47
2019-02-26T19:48:12.301Z,63.28
2019-02-26T19:50:45.431Z,63.62
2019-02-26T19:56:23.379Z,64.72
2019-02-26T20:01:38.544Z,65.13
2019-02-26T20:07:14.264Z,65.55
2019-02-26T20:10:02.202Z,65.77
2019-02-26T20:12:30.964Z,65.35
2019-02-26T20:15:21.741Z,64.65
2019-02-26T20:17:49.723Z,65.50
2019-02-26T20:20:59.666Z,65.75
2019-02-26T20:23:47.666Z,64.15
2019-02-26T20:26:17.026Z,62.56
2019-02-26T20:28:46.920Z,62.34
2019-02-26T20:31:15.718Z,62.45
2019-02-26T20:36:32.188Z,65.66
2019-02-26T20:39:19.972Z,65.54
2019-02-26T20:41:48.735Z,66.18
2019-02-26T20:44:17.421Z,67.31
2019-02-26T20:46:46.419Z,67.55
2019-02-26T20:49:15.226Z,67.15
2019-02-26T20:51:43.958Z,66.90
2019-02-26T20:54:12.749Z,66.63
2019-02-26T20:56:41.462Z,66.50
2019-02-26T20:59:10.232Z,65.19
2019-02-26T21:01:40.161Z,65.98
2019-02-26T21:04:28.446Z,67.11
2019-02-26T21:09:44.900Z,66.86
2019-02-26T21:12:34.739Z,66.14
2019-02-26T21:15:03.151Z,67.60
2019-02-26T21:17:51.007Z,66.63
2019-02-26T21:20:19.657Z,66.07
2019-02-26T21:22:48.345Z,68.06
2019-02-26T21:28:06.536Z,68.46
2019-02-26T21:30:54.576Z,68.77
2019-02-26T21:33:43.145Z,68.94
2019-02-26T21:36:13.541Z,68.83
2019-02-26T21:38:42.334Z,66.47
2019-02-26T21:41:11.049Z,66.13
2019-02-26T21:43:39.732Z,66.59
2019-02-26T21:46:08.459Z,67.88
2019-02-26T21:48:37.273Z,68.32
2019-02-26T21:51:06.880Z,68.37
2019-02-26T21:53:35.707Z,68.83
2019-02-26T21:56:04.471Z,68.48
2019-02-26T21:58:33.705Z,67.13
2019-02-26T22:04:09.436Z,68.57
2019-02-26T22:06:39.910Z,68.90
2019-02-26T22:09:08.994Z,69.10
2019-02-26T22:14:34.024Z,67.83
2019-02-26T22:17:02.686Z,69.02
2019-02-26T22:19:50.801Z,69.67
2019-02-26T22:22:26.021Z,67.79
2019-02-26T22:25:15.981Z,67.98
2019-02-26T22:27:43.004Z,68.46
2019-02-26T22:30:31.187Z,67.17
2019-02-26T22:33:00.001Z,67.82
2019-02-26T22:41:11.921Z,69.26
2019-02-26T22:43:40.789Z,69.98
2019-02-26T22:46:28.655Z,70.49
2019-02-26T22:48:58.557Z,69.72
2019-02-26T22:51:46.600Z,70.67
2019-02-26T22:54:15.249Z,70.94
2019-02-26T22:56:44.341Z,71.62
2019-02-26T23:02:41.268Z,70.92
2019-02-26T23:05:30.533Z,71.09
2019-02-26T23:07:59.207Z,70.84
2019-02-26T23:10:28.290Z,71.63
2019-02-26T23:12:57.059Z,71.58
2019-02-26T23:15:45.875Z,70.56
2019-02-26T23:18:55.109Z,69.34
2019-02-26T23:24:13.045Z,71.13
2019-02-26T23:26:42.617Z,71.03
2019-02-26T23:29:12.266Z,69.95
2019-02-26T23:32:20.778Z,69.68
2019-02-26T23:35:29.278Z,71.53
2019-02-26T23:40:52.965Z,72.23
2019-02-26T23:43:21.619Z,72.50
2019-02-26T23:46:09.496Z,72.19
2019-02-26T23:48:40.537Z,72.79
2019-02-26T23:51:08.577Z,73.28
2019-02-26T23:53:37.217Z,71.59
2019-02-26T23:56:05.913Z,71.28
2019-02-26T23:58:34.569Z,70.64
